sensor_id;sensor_type;location;lat;lon;timestamp;P1;durP1;ratioP1;P2;durP2;ratioP2
15667;SDS011;7934;48.710;9.024;2022-10-15T01:32:49;0.13;;;0.13;;
15667;SDS011;7934;48.710;9.024;2022-10-15T01:35:36;0.00;;;0.00;;
15667;SDS011;7934;48.710;9.024;2022-10-15T01:38:24;0.00;;;0.00;;
15667;SDS011;7934;48.710;9.024;2022-10-15T01:41:26;0.00;;;0.00;;
15667;SDS011;7934;48.710;9.024;2022-10-15T01:44:27;0.00;;;0.00;;
15667;SDS011;7934;48.710;9.024;2022-10-15T01:47:14;0.10;;;0.10;;
15667;SDS011;7934;48.710;9.024;2022-10-15T02:02:01;0.00;;;0.00;;
15667;SDS011;7934;48.710;9.024;2022-10-15T02:04:42;0.00;;;0.00;;
15667;SDS011;7934;48.710;9.024;2022-10-15T02:07:26;0.00;;;0.00;;
15667;SDS011;7934;48.710;9.024;2022-10-15T02:10:25;0.10;;;0.10;;
15667;SDS011;7934;48.710;9.024;2022-10-15T02:13:09;0.00;;;0.00;;
15667;SDS011;7934;48.710;9.024;2022-10-15T02:16:10;0.63;;;0.63;;
15667;SDS011;7934;48.710;9.024;2022-10-15T04:42:18;0.00;;;0.00;;
15667;SDS011;7934;48.710;9.024;2022-10-15T04:44:59;0.00;;;0.00;;
15667;SDS011;7934;48.710;9.024;2022-10-15T04:48:00;0.00;;;0.00;;
15667;SDS011;7934;48.710;9.024;2022-10-15T04:51:03;0.00;;;0.00;;
15667;SDS011;7934;48.710;9.024;2022-10-15T04:53:51;0.00;;;0.00;;
15667;SDS011;7934;48.710;9.024;2022-10-15T04:56:33;0.00;;;0.00;;
15667;SDS011;7934;48.710;9.024;2022-10-15T04:59:21;1.30;;;0.67;;
15667;SDS011;7934;48.710;9.024;2022-10-15T05:02:02;0.00;;;0.00;;
15667;SDS011;7934;48.710;9.024;2022-10-15T05:05:04;0.00;;;0.00;;
15667;SDS011;7934;48.710;9.024;2022-10-15T05:07:53;0.00;;;0.00;;
15667;SDS011;7934;48.710;9.024;2022-10-15T05:10:54;1.37;;;0.60;;
15667;SDS011;7934;48.710;9.024;2022-10-15T05:13:35;21.03;;;1.60;;
15667;SDS011;7934;48.710;9.024;2022-10-15T05:56:56;0.00;;;0.00;;
15667;SDS011;7934;48.710;9.024;2022-10-15T05:59:24;0.00;;;0.00;;
15667;SDS011;7934;48.710;9.024;2022-10-15T06:02:07;0.10;;;0.10;;
15667;SDS011;7934;48.710;9.024;2022-10-15T06:04:52;3.40;;;0.50;;
15667;SDS011;7934;48.710;9.024;2022-10-15T06:07:53;0.00;;;0.00;;
15667;SDS011;7934;48.710;9.024;2022-10-15T06:10:40;0.00;;;0.00;;
15667;SDS011;7934;48.710;9.024;2022-10-15T06:22:18;0.00;;;0.00;;
15667;SDS011;7934;48.710;9.024;2022-10-15T06:24:59;0.00;;;0.00;;
15667;SDS011;7934;48.710;9.024;2022-10-15T06:27:40;0.50;;;0.50;;
15667;SDS011;7934;48.710;9.024;2022-10-15T06:30:41;0.00;;;0.00;;
15667;SDS011;7934;48.710;9.024;2022-10-15T06:33:42;0.00;;;0.00;;
15667;SDS011;7934;48.710;9.024;2022-10-15T06:36:31;0.00;;;0.00;;
15667;SDS011;7934;48.710;9.024;2022-10-15T07:37:35;0.10;;;0.10;;
15667;SDS011;7934;48.710;9.024;2022-10-15T07:40:16;0.20;;;0.20;;
15667;SDS011;7934;48.710;9.024;2022-10-15T07:43:13;0.50;;;0.50;;
15667;SDS011;7934;48.710;9.024;2022-10-15T07:45:55;0.10;;;0.10;;
15667;SDS011;7934;48.710;9.024;2022-10-15T07:48:46;0.00;;;0.00;;
15667;SDS011;7934;48.710;9.024;2022-10-15T07:51:15;0.00;;;0.00;;
15667;SDS011;7934;48.710;9.024;2022-10-15T07:53:44;0.00;;;0.00;;
15667;SDS011;7934;48.710;9.024;2022-10-15T07:56:13;0.47;;;0.33;;
15667;SDS011;7934;48.710;9.024;2022-10-15T07:59:09;0.00;;;0.00;;
15667;SDS011;7934;48.710;9.024;2022-10-15T08:02:13;0.03;;;0.03;;
15667;SDS011;7934;48.710;9.024;2022-10-15T08:05:15;0.00;;;0.00;;
15667;SDS011;7934;48.710;9.024;2022-10-15T08:08:03;7.33;;;0.57;;
15667;SDS011;7934;48.710;9.024;2022-10-15T08:13:46;0.00;;;0.00;;
15667;SDS011;7934;48.710;9.024;2022-10-15T08:16:27;0.00;;;0.00;;
15667;SDS011;7934;48.710;9.024;2022-10-15T08:19:10;0.00;;;0.00;;
15667;SDS011;7934;48.710;9.024;2022-10-15T08:21:52;0.20;;;0.20;;
15667;SDS011;7934;48.710;9.024;2022-10-15T08:24:33;0.00;;;0.00;;
15667;SDS011;7934;48.710;9.024;2022-10-15T08:27:34;0.07;;;0.03;;
15667;SDS011;7934;48.710;9.024;2022-10-15T08:33:01;0.00;;;0.00;;
15667;SDS011;7934;48.710;9.024;2022-10-15T08:35:42;0.10;;;0.10;;
15667;SDS011;7934;48.710;9.024;2022-10-15T08:38:23;0.00;;;0.00;;
15667;SDS011;7934;48.710;9.024;2022-10-15T08:41:25;0.00;;;0.00;;
15667;SDS011;7934;48.710;9.024;2022-10-15T08:44:11;0.00;;;0.00;;
15667;SDS011;7934;48.710;9.024;2022-10-15T08:46:42;0.00;;;0.00;;
15667;SDS011;7934;48.710;9.024;2022-10-15T08:58:10;0.00;;;0.00;;
15667;SDS011;7934;48.710;9.024;2022-10-15T09:00:41;0.00;;;0.00;;
15667;SDS011;7934;48.710;9.024;2022-10-15T09:03:30;0.00;;;0.00;;
15667;SDS011;7934;48.710;9.024;2022-10-15T09:06:13;0.00;;;0.00;;
15667;SDS011;7934;48.710;9.024;2022-10-15T09:09:15;0.00;;;0.00;;
15667;SDS011;7934;48.710;9.024;2022-10-15T09:12:00;0.00;;;0.00;;
15667;SDS011;7934;48.710;9.024;2022-10-15T09:32:10;0.00;;;0.00;;
15667;SDS011;7934;48.710;9.024;2022-10-15T09:34:58;0.10;;;0.10;;
15667;SDS011;7934;48.710;9.024;2022-10-15T09:38:00;0.00;;;0.00;;
15667;SDS011;7934;48.710;9.024;2022-10-15T09:41:04;0.00;;;0.00;;
15667;SDS011;7934;48.710;9.024;2022-10-15T09:43:51;0.20;;;0.20;;
15667;SDS011;7934;48.710;9.024;2022-10-15T09:46:42;0.00;;;0.00;;
15667;SDS011;7934;48.710;9.024;2022-10-15T10:18:27;0.67;;;0.67;;
15667;SDS011;7934;48.710;9.024;2022-10-15T10:20:57;2.10;;;0.70;;
15667;SDS011;7934;48.710;9.024;2022-10-15T10:23:38;0.67;;;0.67;;
15667;SDS011;7934;48.710;9.024;2022-10-15T10:26:21;0.70;;;0.70;;
15667;SDS011;7934;48.710;9.024;2022-10-15T10:29:22;1.97;;;0.73;;
15667;SDS011;7934;48.710;9.024;2022-10-15T10:31:52;0.60;;;0.60;;
15667;SDS011;7934;48.710;9.024;2022-10-15T10:37:17;1.70;;;0.73;;
15667;SDS011;7934;48.710;9.024;2022-10-15T10:39:45;1.27;;;0.83;;
15667;SDS011;7934;48.710;9.024;2022-10-15T10:42:30;0.83;;;0.83;;
15667;SDS011;7934;48.710;9.024;2022-10-15T10:47:53;0.77;;;0.73;;
15667;SDS011;7934;48.710;9.024;2022-10-15T10:50:35;2.30;;;0.80;;
15667;SDS011;7934;48.710;9.024;2022-10-15T11:33:59;2.63;;;1.23;;
15667;SDS011;7934;48.710;9.024;2022-10-15T11:36:36;2.33;;;0.70;;
15667;SDS011;7934;48.710;9.024;2022-10-15T11:39:11;3.80;;;0.70;;
15667;SDS011;7934;48.710;9.024;2022-10-15T11:41:55;1.40;;;0.82;;
15667;SDS011;7934;48.710;9.024;2022-10-15T11:44:47;1.00;;;0.73;;
15667;SDS011;7934;48.710;9.024;2022-10-15T11:47:48;0.90;;;0.90;;
15667;SDS011;7934;48.710;9.024;2022-10-15T11:56:27;0.70;;;0.70;;
15667;SDS011;7934;48.710;9.024;2022-10-15T11:59:13;2.00;;;0.80;;
15667;SDS011;7934;48.710;9.024;2022-10-15T12:02:02;1.30;;;0.73;;
15667;SDS011;7934;48.710;9.024;2022-10-15T12:04:49;1.10;;;0.77;;
15667;SDS011;7934;48.710;9.024;2022-10-15T12:07:32;2.03;;;0.77;;
15667;SDS011;7934;48.710;9.024;2022-10-15T12:10:06;1.47;;;0.70;;
15667;SDS011;7934;48.710;9.024;2022-10-15T12:12:40;0.70;;;0.70;;
15667;SDS011;7934;48.710;9.024;2022-10-15T12:15:25;0.80;;;0.80;;
15667;SDS011;7934;48.710;9.024;2022-10-15T12:18:12;2.17;;;0.90;;
15667;SDS011;7934;48.710;9.024;2022-10-15T12:23:54;2.30;;;0.90;;
15667;SDS011;7934;48.710;9.024;2022-10-15T12:26:36;1.03;;;0.90;;
15667;SDS011;7934;48.710;9.024;2022-10-15T12:32:28;4.93;;;1.07;;
15667;SDS011;7934;48.710;9.024;2022-10-15T12:35:19;1.40;;;1.00;;
15667;SDS011;7934;48.710;9.024;2022-10-15T12:38:24;3.27;;;1.00;;
15667;SDS011;7934;48.710;9.024;2022-10-15T12:41:08;1.10;;;0.90;;
15667;SDS011;7934;48.710;9.024;2022-10-15T12:43:51;0.97;;;0.97;;
15667;SDS011;7934;48.710;9.024;2022-10-15T12:46:39;4.13;;;0.83;;
15667;SDS011;7934;48.710;9.024;2022-10-15T13:32:31;2.80;;;1.60;;
15667;SDS011;7934;48.710;9.024;2022-10-15T13:35:16;3.57;;;1.40;;
15667;SDS011;7934;48.710;9.024;2022-10-15T13:37:58;1.20;;;1.20;;
15667;SDS011;7934;48.710;9.024;2022-10-15T13:40:48;2.53;;;1.40;;
15667;SDS011;7934;48.710;9.024;2022-10-15T13:43:50;3.40;;;1.60;;
15667;SDS011;7934;48.710;9.024;2022-10-15T13:46:22;1.07;;;1.00;;
15667;SDS011;7934;48.710;9.024;2022-10-15T15:36:36;3.00;;;1.20;;
15667;SDS011;7934;48.710;9.024;2022-10-15T15:39:22;2.67;;;1.27;;
15667;SDS011;7934;48.710;9.024;2022-10-15T15:42:21;1.13;;;0.80;;
15667;SDS011;7934;48.710;9.024;2022-10-15T15:45:23;0.93;;;0.93;;
15667;SDS011;7934;48.710;9.024;2022-10-15T15:48:22;1.00;;;0.90;;
